Time,TemperatureF,DewpointF,PressureIn,WindDirection,WindDirectionDegrees,WindSpeedMPH,WindSpeedGustMPH,Humidity,HourlyPrecipIn,Conditions,Clouds,dailyrainin,SolarRadiationWatts/m^2,SoftwareType,DateUTC
2013-09-21 00:03:00,44.0,43.0,-100.00,NW,317,8.0,18.0,96,0.01,,,0.12,0.000000,,2013-09-21 05:03:00,
2013-09-21 00:44:00,44.0,43.0,-100.00,NW,322,9.0,19.0,95,0.01,,,0.13,0.000000,,2013-09-21 05:44:00,
2013-09-21 00:53:00,44.0,43.0,-100.00,NW,322,9.0,19.0,95,0.01,,,0.13,0.000000,,2013-09-21 05:53:00,
2013-09-21 01:02:00,44.0,43.0,-100.00,NW,322,9.0,19.0,95,0.01,,,0.13,0.000000,,2013-09-21 06:02:00,
2013-09-21 01:12:00,44.0,43.0,-100.00,NW,322,9.0,19.0,95,0.01,,,0.13,0.000000,,2013-09-21 06:12:00,
2013-09-21 01:42:00,41.0,40.0,-100.00,NNW,335,9.0,21.0,97,0.01,,,0.14,1.000000,,2013-09-21 06:42:00,
2013-09-21 01:53:00,41.0,40.0,-100.00,NNW,335,9.0,21.0,97,0.01,,,0.14,1.000000,,2013-09-21 06:53:00,
2013-09-21 02:01:00,41.0,40.0,-100.00,NNW,335,9.0,21.0,97,0.01,,,0.14,1.000000,,2013-09-21 07:01:00,
2013-09-21 02:11:00,41.0,40.0,-100.00,NNW,335,9.0,21.0,97,0.01,,,0.14,1.000000,,2013-09-21 07:11:00,
2013-09-21 02:13:00,41.0,40.0,-100.00,NW,322,6.0,14.0,96,0.00,,,0.14,0.000000,,2013-09-21 07:13:00,
2013-09-21 02:42:00,41.0,40.0,-100.00,NW,322,6.0,14.0,96,0.00,,,0.14,0.000000,,2013-09-21 07:42:00,
2013-09-21 02:52:00,41.0,40.0,-100.00,NW,322,6.0,14.0,96,0.00,,,0.14,0.000000,,2013-09-21 07:52:00,
2013-09-21 03:03:00,41.0,40.0,-100.00,NW,322,6.0,14.0,96,0.00,,,0.14,0.000000,,2013-09-21 08:03:00,
2013-09-21 03:42:00,39.0,37.0,-100.00,NW,325,8.0,16.0,92,0.00,,,0.14,1.000000,,2013-09-21 08:42:00,
2013-09-21 03:52:00,39.0,37.0,-100.00,NW,325,8.0,16.0,92,0.00,,,0.14,1.000000,,2013-09-21 08:52:00,
2013-09-21 04:02:00,39.0,37.0,-100.00,NW,325,8.0,16.0,92,0.00,,,0.14,1.000000,,2013-09-21 09:02:00,
2013-09-21 04:11:00,39.0,37.0,-100.00,NW,325,8.0,16.0,92,0.00,,,0.14,1.000000,,2013-09-21 09:11:00,
2013-09-21 04:43:00,38.0,37.0,-100.00,NW,322,9.0,13.0,95,0.00,,,0.13,1.000000,,2013-09-21 09:43:00,
2013-09-21 04:54:00,38.0,37.0,-100.00,NW,322,9.0,13.0,95,0.00,,,0.13,1.000000,,2013-09-21 09:54:00,
2013-09-21 05:03:00,38.0,37.0,-100.00,NW,322,9.0,13.0,95,0.00,,,0.13,1.000000,,2013-09-21 10:03:00,
2013-09-21 05:12:00,38.0,37.0,-100.00,NW,322,9.0,13.0,95,0.00,,,0.13,1.000000,,2013-09-21 10:12:00,
2013-09-21 05:42:00,37.0,36.0,-100.00,NW,315,7.0,12.0,96,0.00,,,0.12,1.000000,,2013-09-21 10:42:00,
2013-09-21 05:52:00,37.0,36.0,-100.00,NW,315,7.0,12.0,96,0.00,,,0.12,1.000000,,2013-09-21 10:52:00,
2013-09-21 06:03:00,37.0,36.0,-100.00,NW,315,7.0,12.0,96,0.00,,,0.12,1.000000,,2013-09-21 11:03:00,
2013-09-21 06:11:00,37.0,36.0,-100.00,NW,315,7.0,12.0,96,0.00,,,0.12,1.000000,,2013-09-21 11:11:00,
2013-09-21 06:42:00,37.0,36.0,-100.00,NW,316,7.0,12.0,97,0.00,,,0.11,0.000000,,2013-09-21 11:42:00,
2013-09-21 06:52:00,37.0,36.0,-100.00,NW,316,7.0,12.0,97,0.00,,,0.11,0.000000,,2013-09-21 11:52:00,
2013-09-21 07:02:00,37.0,36.0,-100.00,NW,316,7.0,12.0,97,0.00,,,0.11,0.000000,,2013-09-21 12:02:00,
2013-09-21 07:12:00,37.0,36.0,-100.00,NW,316,7.0,12.0,97,0.00,,,0.11,0.000000,,2013-09-21 12:12:00,
2013-09-21 07:42:00,38.0,37.0,-100.00,NW,316,9.0,14.0,96,0.00,,,0.11,2.000000,,2013-09-21 12:42:00,
2013-09-21 07:52:00,38.0,37.0,-100.00,NW,316,9.0,14.0,96,0.00,,,0.11,2.000000,,2013-09-21 12:52:00,
2013-09-21 08:02:00,38.0,37.0,-100.00,NW,316,9.0,14.0,96,0.00,,,0.11,2.000000,,2013-09-21 13:02:00,
2013-09-21 08:11:00,38.0,37.0,-100.00,NW,316,9.0,14.0,96,0.00,,,0.11,2.000000,,2013-09-21 13:11:00,
2013-09-21 08:42:00,39.0,36.0,-100.00,NW,319,8.0,16.0,90,0.00,,,0.10,30.000000,,2013-09-21 13:42:00,
2013-09-21 08:52:00,39.0,36.0,-100.00,NW,319,8.0,16.0,90,0.00,,,0.10,30.000000,,2013-09-21 13:52:00,
2013-09-21 09:02:00,39.0,36.0,-100.00,NW,319,8.0,16.0,90,0.00,,,0.10,30.000000,,2013-09-21 14:02:00,
2013-09-21 09:11:00,39.0,36.0,-100.00,NW,319,8.0,16.0,90,0.00,,,0.10,30.000000,,2013-09-21 14:11:00,
2013-09-21 09:42:00,41.0,37.0,-100.00,NNW,329,8.0,14.0,87,0.00,,,0.10,95.000000,,2013-09-21 14:42:00,
2013-09-21 09:52:00,41.0,37.0,-100.00,NNW,329,8.0,14.0,87,0.00,,,0.10,95.000000,,2013-09-21 14:52:00,
2013-09-21 10:01:00,41.0,37.0,-100.00,NNW,329,8.0,14.0,87,0.00,,,0.10,95.000000,,2013-09-21 15:01:00,
2013-09-21 10:12:00,41.0,37.0,-100.00,NNW,329,8.0,14.0,87,0.00,,,0.10,95.000000,,2013-09-21 15:12:00,
2013-09-21 10:13:00,42.0,35.0,-100.00,NW,325,10.0,15.0,76,0.00,,,0.10,298.000000,,2013-09-21 15:13:00,
2013-09-21 10:45:00,42.0,35.0,-100.00,NW,325,10.0,15.0,76,0.00,,,0.10,298.000000,,2013-09-21 15:45:00,
2013-09-21 10:55:00,42.0,35.0,-100.00,NW,325,10.0,15.0,76,0.00,,,0.10,298.000000,,2013-09-21 15:55:00,
2013-09-21 11:05:00,42.0,35.0,-100.00,NW,325,10.0,15.0,76,0.00,,,0.10,298.000000,,2013-09-21 16:05:00,
2013-09-21 11:43:00,44.0,35.0,-100.00,NW,324,10.0,17.0,71,0.00,,,0.10,483.000000,,2013-09-21 16:43:00,
2013-09-21 11:54:00,44.0,35.0,-100.00,NW,324,10.0,17.0,71,0.00,,,0.10,483.000000,,2013-09-21 16:54:00,
2013-09-21 12:03:00,44.0,35.0,-100.00,NW,324,10.0,17.0,71,0.00,,,0.10,483.000000,,2013-09-21 17:03:00,
2013-09-21 12:12:00,44.0,35.0,-100.00,NW,324,10.0,17.0,71,0.00,,,0.10,483.000000,,2013-09-21 17:12:00,
2013-09-21 12:43:00,46.0,36.0,-100.00,NW,321,10.0,17.0,67,0.00,,,0.10,456.000000,,2013-09-21 17:43:00,
2013-09-21 12:52:00,46.0,36.0,-100.00,NW,321,10.0,17.0,67,0.00,,,0.10,456.000000,,2013-09-21 17:52:00,
2013-09-21 13:02:00,46.0,36.0,-100.00,NW,321,10.0,17.0,67,0.00,,,0.10,456.000000,,2013-09-21 18:02:00,
2013-09-21 13:12:00,46.0,36.0,-100.00,NW,321,10.0,17.0,67,0.00,,,0.10,456.000000,,2013-09-21 18:12:00,
2013-09-21 13:42:00,49.0,38.0,-100.00,NW,321,10.0,16.0,65,0.00,,,0.10,589.000000,,2013-09-21 18:42:00,
2013-09-21 13:52:00,49.0,38.0,-100.00,NW,321,10.0,16.0,65,0.00,,,0.10,589.000000,,2013-09-21 18:52:00,
2013-09-21 14:02:00,49.0,38.0,-100.00,NW,321,10.0,16.0,65,0.00,,,0.10,589.000000,,2013-09-21 19:02:00,
2013-09-21 14:11:00,49.0,38.0,-100.00,NW,321,10.0,16.0,65,0.00,,,0.10,589.000000,,2013-09-21 19:11:00,
2013-09-21 14:42:00,51.0,38.0,-100.00,NW,325,7.0,19.0,61,0.00,,,0.10,624.000000,,2013-09-21 19:42:00,
2013-09-21 14:52:00,51.0,38.0,-100.00,NW,325,7.0,19.0,61,0.00,,,0.10,624.000000,,2013-09-21 19:52:00,
2013-09-21 15:02:00,51.0,38.0,-100.00,NW,325,7.0,19.0,61,0.00,,,0.10,624.000000,,2013-09-21 20:02:00,
2013-09-21 15:12:00,51.0,38.0,-100.00,NW,325,7.0,19.0,61,0.00,,,0.10,624.000000,,2013-09-21 20:12:00,
2013-09-21 15:43:00,51.0,37.0,-100.00,NNW,336,8.0,13.0,58,0.00,,,0.10,621.000000,,2013-09-21 20:43:00,
2013-09-21 15:52:00,51.0,37.0,-100.00,NNW,336,8.0,13.0,58,0.00,,,0.10,621.000000,,2013-09-21 20:52:00,
2013-09-21 16:02:00,51.0,37.0,-100.00,NNW,336,8.0,13.0,58,0.00,,,0.10,621.000000,,2013-09-21 21:02:00,
2013-09-21 16:12:00,51.0,37.0,-100.00,NNW,336,8.0,13.0,58,0.00,,,0.10,621.000000,,2013-09-21 21:12:00,
2013-09-21 16:13:00,52.0,37.0,-100.00,NW,318,8.0,15.0,56,0.00,,,0.10,519.000000,,2013-09-21 21:13:00,
2013-09-21 16:45:00,52.0,37.0,-100.00,NW,318,8.0,15.0,56,0.00,,,0.10,519.000000,,2013-09-21 21:45:00,
2013-09-21 16:54:00,52.0,37.0,-100.00,NW,318,8.0,15.0,56,0.00,,,0.10,519.000000,,2013-09-21 21:54:00,
2013-09-21 17:05:00,52.0,37.0,-100.00,NW,318,8.0,15.0,56,0.00,,,0.10,519.000000,,2013-09-21 22:05:00,
2013-09-21 17:13:00,52.0,37.0,-100.00,NW,324,6.0,13.0,57,0.00,,,-99.99,360.000000,,2013-09-21 22:13:00,
2013-09-21 17:43:00,52.0,37.0,-100.00,NW,324,6.0,13.0,57,0.00,,,-99.99,360.000000,,2013-09-21 22:43:00,
2013-09-21 17:53:00,52.0,37.0,-100.00,NW,324,6.0,13.0,57,0.00,,,-99.99,360.000000,,2013-09-21 22:53:00,
2013-09-21 18:03:00,52.0,37.0,-100.00,NW,324,6.0,13.0,57,0.00,,,-99.99,360.000000,,2013-09-21 23:03:00,
2013-09-21 18:42:00,48.0,36.0,-100.00,NNW,334,5.0,12.0,64,0.00,,,0.10,82.000000,,2013-09-21 23:42:00,
2013-09-21 18:53:00,48.0,36.0,-100.00,NNW,334,5.0,12.0,64,0.00,,,0.10,82.000000,,2013-09-21 23:53:00,
2013-09-21 19:02:00,48.0,36.0,-100.00,NNW,334,5.0,12.0,64,0.00,,,0.10,82.000000,,2013-09-22 00:02:00,
2013-09-21 19:12:00,48.0,36.0,-100.00,NNW,334,5.0,12.0,64,0.00,,,0.10,82.000000,,2013-09-22 00:12:00,
2013-09-21 19:43:00,44.0,35.0,-100.00,North,356,3.0,7.0,71,0.00,,,0.09,12.000000,,2013-09-22 00:43:00,
2013-09-21 19:52:00,44.0,35.0,-100.00,North,356,3.0,7.0,71,0.00,,,0.09,12.000000,,2013-09-22 00:52:00,
2013-09-21 20:02:00,44.0,35.0,-100.00,North,356,3.0,7.0,71,0.00,,,0.09,12.000000,,2013-09-22 01:02:00,
2013-09-21 20:12:00,44.0,35.0,-100.00,North,356,3.0,7.0,71,0.00,,,0.09,12.000000,,2013-09-22 01:12:00,
2013-09-21 20:42:00,44.0,36.0,-100.00,North,359,3.0,5.0,74,0.00,,,0.09,1.000000,,2013-09-22 01:42:00,
2013-09-21 20:52:00,44.0,36.0,-100.00,North,359,3.0,5.0,74,0.00,,,0.09,1.000000,,2013-09-22 01:52:00,
2013-09-21 21:02:00,44.0,36.0,-100.00,North,359,3.0,5.0,74,0.00,,,0.09,1.000000,,2013-09-22 02:02:00,
2013-09-21 21:12:00,44.0,36.0,-100.00,North,359,3.0,5.0,74,0.00,,,0.09,1.000000,,2013-09-22 02:12:00,
2013-09-21 21:42:00,43.0,36.0,-100.00,North,1,2.0,6.0,76,0.00,,,0.09,0.000000,,2013-09-22 02:42:00,
2013-09-21 21:52:00,43.0,36.0,-100.00,North,1,2.0,6.0,76,0.00,,,0.09,0.000000,,2013-09-22 02:52:00,
2013-09-21 22:02:00,43.0,36.0,-100.00,North,1,2.0,6.0,76,0.00,,,0.09,0.000000,,2013-09-22 03:02:00,
2013-09-21 23:03:00,-999.0,-99.9,-100.00,ESE,102,2.0,4.0,-999,-99.99,,,-99.99,0.000000,,2013-09-22 04:03:00,
2013-09-21 23:44:00,40.0,35.0,-100.00,SE,126,2.0,4.0,82,-99.99,,,0.02,1.000000,,2013-09-22 04:44:00,